Time;durP1;ratioP1;P1;durP2;ratioP2;P2;SDS_P1;SDS_P2;PMS_P1;PMS_P2;Temp;Humidity;BMP_temperature;BMP_pressure;BME280_temperature;BME280_humidity;BME280_pressure;Samples;Min_cycle;Max_cycle;Signal;HPM_P1;HPM_P2
2022/01/12 00:23:07;;;;;;;19.67;8.90;;;6.20;98.50;;;;;;10528229;28;20067;-64
2022/01/12 00:33:27;;;;;;;20.08;8.98;;;6.20;98.50;;;;;;10451914;28;20152;-66
2022/01/12 00:38:29;;;;;;;19.27;8.65;;;6.20;98.50;;;;;;10455348;28;20494;-64
2022/01/12 00:43:33;;;;;;;18.60;9.23;;;6.20;98.50;;;;;;10463145;28;20107;-63
2022/01/12 00:48:37;;;;;;;19.02;8.98;;;6.20;98.50;;;;;;10461554;28;20163;-63
2022/01/12 00:53:39;;;;;;;18.45;8.32;;;6.20;98.50;;;;;;10449717;28;20048;-65
2022/01/12 00:58:41;;;;;;;18.67;9.48;;;6.20;98.50;;;;;;10462671;28;20163;-64
2022/01/12 01:03:42;;;;;;;19.75;8.75;;;6.30;98.60;;;;;;10452889;28;20483;-63
2022/01/12 01:08:48;;;;;;;17.25;8.63;;;6.30;98.60;;;;;;10465201;28;20025;-65
2022/01/12 01:14:01;;;;;;;19.00;9.40;;;6.20;98.60;;;;;;10453458;28;20413;-63
2022/01/12 01:29:41;;;;;;;18.00;9.07;;;6.20;98.60;;;;;;10519829;28;20181;-65
2022/01/12 01:34:47;;;;;;;24.73;10.00;;;6.50;98.70;;;;;;10525210;28;20024;-63
2022/01/12 01:39:49;;;;;;;25.27;10.50;;;6.20;98.60;;;;;;10526320;28;20419;-64
2022/01/12 01:55:12;;;;;;;22.95;11.05;;;6.30;98.70;;;;;;10527549;28;20074;-65
2022/01/12 02:00:19;;;;;;;21.13;9.57;;;6.30;98.70;;;;;;10527971;28;20077;-66
2022/01/12 02:05:20;;;;;;;18.05;9.30;;;6.30;98.70;;;;;;10529775;28;20103;-64
2022/01/12 02:10:21;;;;;;;21.35;8.75;;;6.30;98.70;;;;;;10523951;28;20422;-65
2022/01/12 02:15:25;;;;;;;22.02;9.60;;;6.60;98.80;;;;;;10527122;28;20056;-65
2022/01/12 02:36:29;;;;;;;24.90;11.30;;;6.30;98.70;;;;;;10534209;28;20490;-64
2022/01/12 02:41:30;;;;;;;24.05;10.05;;;6.30;98.70;;;;;;10532885;28;20082;-65
2022/01/12 02:57:14;;;;;;;23.63;10.70;;;6.30;98.80;;;;;;10486032;28;20119;-66
2022/01/12 03:02:32;;;;;;;27.17;10.95;;;6.30;98.80;;;;;;10532261;28;20394;-64
2022/01/12 03:07:37;;;;;;;22.50;10.07;;;6.40;98.80;;;;;;10531040;28;20024;-65
2022/01/12 03:12:43;;;;;;;27.58;10.23;;;6.30;98.80;;;;;;10518240;28;20039;-65
2022/01/12 03:17:44;;;;;;;24.95;10.80;;;6.30;98.80;;;;;;10533022;28;20035;-66
2022/01/12 03:22:44;;;;;;;26.02;10.80;;;6.30;98.80;;;;;;10533844;28;20115;-65
2022/01/12 03:27:45;;;;;;;25.52;10.13;;;6.40;98.90;;;;;;10524604;28;20570;-65
2022/01/12 03:32:50;;;;;;;30.10;11.55;;;6.30;98.90;;;;;;10518661;28;20396;-62
2022/01/12 03:38:19;;;;;;;27.52;11.50;;;6.30;98.90;;;;;;10531662;28;20534;-63
2022/01/12 03:43:18;;;;;;;23.23;10.85;;;6.30;98.90;;;;;;10518175;28;20032;-65
2022/01/12 03:48:19;;;;;;;25.33;10.02;;;6.40;98.90;;;;;;10530710;28;20426;-65
2022/01/12 03:53:19;;;;;;;26.38;11.48;;;6.30;98.90;;;;;;10530789;28;20131;-65
2022/01/12 03:58:20;;;;;;;29.35;11.35;;;6.40;98.90;;;;;;10513006;28;20027;-64
2022/01/12 04:03:21;;;;;;;27.13;10.73;;;6.40;98.90;;;;;;10513242;28;20031;-62
2022/01/12 04:08:23;;;;;;;27.05;10.73;;;6.40;98.90;;;;;;10520541;28;20032;-63
2022/01/12 04:13:26;;;;;;;26.35;10.55;;;6.40;98.90;;;;;;10530783;28;20405;-62
2022/01/12 04:18:27;;;;;;;28.38;12.05;;;6.40;99.00;;;;;;10536668;28;20024;-61
2022/01/12 04:23:28;;;;;;;27.70;11.00;;;6.40;99.00;;;;;;10520758;28;20044;-62
2022/01/12 04:28:29;;;;;;;31.15;10.50;;;6.60;99.00;;;;;;10530184;28;20127;-65
2022/01/12 04:33:31;;;;;;;29.73;11.15;;;6.40;99.20;;;;;;10529957;28;20097;-62
2022/01/12 04:38:34;;;;;;;27.92;10.95;;;7.30;99.20;;;;;;10527739;28;20114;-62
2022/01/12 04:43:39;;;;;;;27.27;11.18;;;6.40;99.00;;;;;;10531033;28;20759;-63
2022/01/12 04:53:44;;;;;;;27.45;10.55;;;6.40;99.00;;;;;;10529179;28;20039;-66
2022/01/12 04:58:45;;;;;;;35.05;10.98;;;6.40;99.10;;;;;;10526175;28;20114;-64
2022/01/12 05:09:12;;;;;;;;;;;6.40;99.10;;;;;;10516738;28;20043;-63
2022/01/12 05:14:13;;;;;;;29.77;11.43;;;6.40;99.30;;;;;;10518686;28;20169;-66
2022/01/12 05:19:14;;;;;;;26.58;11.23;;;6.40;99.00;;;;;;10529332;28;20021;-63
2022/01/12 05:24:15;;;;;;;30.63;11.18;;;6.40;99.10;;;;;;10519361;28;20044;-62
2022/01/12 05:29:16;;;;;;;25.55;9.73;;;6.40;99.10;;;;;;10521490;28;20234;-62
2022/01/12 05:34:17;;;;;;;25.35;9.93;;;6.40;99.10;;;;;;10505509;28;20024;-60
2022/01/12 05:39:17;;;;;;;26.92;11.90;;;6.40;99.10;;;;;;10525528;28;20104;-65
2022/01/12 05:44:18;;;;;;;30.13;12.25;;;6.40;99.10;;;;;;10528238;28;20031;-65
2022/01/12 05:49:34;;;;;;;26.17;10.35;;;6.40;99.10;;;;;;10526428;28;20013;-65
2022/01/12 05:54:35;;;;;;;26.92;9.80;;;6.50;99.40;;;;;;10533617;28;20032;-65
2022/01/12 05:59:36;;;;;;;30.75;11.25;;;6.40;99.10;;;;;;10535462;28;20012;-64
2022/01/12 06:04:36;;;;;;;27.77;10.35;;;6.40;99.10;;;;;;10533793;28;20059;-65
2022/01/12 06:09:37;;;;;;;31.55;10.15;;;6.40;99.20;;;;;;10528047;28;20506;-63
2022/01/12 06:14:38;;;;;;;27.83;10.48;;;6.50;99.20;;;;;;10535447;28;20027;-64
2022/01/12 06:19:39;;;;;;;26.88;9.82;;;6.40;99.20;;;;;;10539948;28;20038;-65
2022/01/12 06:24:40;;;;;;;26.83;9.48;;;6.50;99.20;;;;;;10526028;28;20044;-62
2022/01/12 06:29:44;;;;;;;26.63;10.40;;;6.40;99.20;;;;;;10533187;28;20043;-65
2022/01/12 06:34:45;;;;;;;29.30;10.73;;;6.40;99.20;;;;;;10530465;28;20513;-63
2022/01/12 06:39:46;;;;;;;26.20;9.90;;;6.40;99.20;;;;;;10521042;28;20024;-64
2022/01/12 06:44:48;;;;;;;24.90;9.32;;;6.40;99.20;;;;;;10536127;28;20091;-64
2022/01/12 06:49:48;;;;;;;27.48;10.38;;;6.40;99.20;;;;;;10532853;28;20134;-62
2022/01/12 06:54:49;;;;;;;27.80;11.05;;;6.40;99.20;;;;;;10535352;28;20851;-66
2022/01/12 06:59:50;;;;;;;25.15;9.32;;;6.50;99.30;;;;;;10533621;28;20032;-63
2022/01/12 07:04:51;;;;;;;24.58;9.63;;;6.50;99.30;;;;;;10532899;28;20016;-62
2022/01/12 07:09:52;;;;;;;27.45;9.90;;;6.40;99.30;;;;;;10530661;28;20130;-63
2022/01/12 07:14:52;;;;;;;22.58;9.38;;;6.40;99.30;;;;;;10535053;28;20073;-65
2022/01/12 07:19:53;;;;;;;21.85;8.70;;;6.70;99.40;;;;;;10537513;28;20032;-66
2022/01/12 07:24:53;;;;;;;20.17;8.88;;;6.40;99.30;;;;;;10524227;28;20040;-65
2022/01/12 07:29:54;;;;;;;22.13;8.75;;;6.30;99.30;;;;;;10532463;28;20039;-65
2022/01/12 07:34:55;;;;;;;20.17;8.05;;;6.30;99.40;;;;;;10532151;28;20023;-64
2022/01/12 07:39:56;;;;;;;23.95;9.05;;;6.30;99.40;;;;;;10511118;28;20066;-64
2022/01/12 07:45:01;;;;;;;27.63;8.82;;;6.30;99.40;;;;;;10532004;28;20028;-65
2022/01/12 07:50:04;;;;;;;23.88;8.45;;;6.30;99.60;;;;;;10531109;28;20130;-66
2022/01/12 07:55:06;;;;;;;17.33;7.60;;;6.30;99.30;;;;;;10530602;28;20110;-64
2022/01/12 08:00:07;;;;;;;18.20;7.45;;;6.30;99.30;;;;;;10529909;28;20554;-65
2022/01/12 08:05:09;;;;;;;19.23;7.35;;;6.30;99.30;;;;;;10517411;28;20464;-65
2022/01/12 08:10:10;;;;;;;17.33;7.55;;;6.30;99.30;;;;;;10527646;28;20429;-66
2022/01/12 08:15:11;;;;;;;21.65;9.05;;;6.30;99.30;;;;;;10529595;28;20032;-66
2022/01/12 08:20:14;;;;;;;20.77;7.93;;;6.30;99.20;;;;;;10535945;28;20055;-65
2022/01/12 08:25:15;;;;;;;20.85;8.05;;;6.30;99.20;;;;;;10520237;28;20409;-66
2022/01/12 08:30:17;;;;;;;17.80;7.50;;;6.30;99.20;;;;;;10529563;28;20046;-67
2022/01/12 08:35:19;;;;;;;18.42;6.75;;;6.40;99.20;;;;;;10529484;28;20435;-65
2022/01/12 08:40:21;;;;;;;19.67;7.38;;;6.40;99.20;;;;;;10528250;28;20038;-65
2022/01/12 08:45:22;;;;;;;18.35;7.32;;;6.40;99.20;;;;;;10511865;28;20482;-67
2022/01/12 08:50:23;;;;;;;15.10;7.03;;;6.40;99.20;;;;;;10521488;28;20568;-67
2022/01/12 08:55:24;;;;;;;20.40;7.38;;;6.40;99.20;;;;;;10503909;28;20162;-66
2022/01/12 09:00:26;;;;;;;20.63;7.28;;;6.40;99.20;;;;;;10496489;28;20017;-69
2022/01/12 09:05:26;;;;;;;16.17;7.15;;;6.40;99.20;;;;;;10504173;28;20029;-67
2022/01/12 09:10:27;;;;;;;16.27;6.72;;;6.40;99.20;;;;;;10493455;28;20028;-68
2022/01/12 09:15:28;;;;;;;15.48;6.82;;;6.60;99.20;;;;;;10493887;28;20031;-66
2022/01/12 09:20:29;;;;;;;13.88;6.22;;;6.50;99.20;;;;;;10492979;28;20055;-68
2022/01/12 09:25:35;;;;;;;15.75;5.75;;;6.50;99.20;;;;;;10495536;28;20468;-66
2022/01/12 09:30:36;;;;;;;12.82;6.10;;;6.50;99.10;;;;;;10496132;28;20116;-69
2022/01/12 09:35:37;;;;;;;15.25;6.55;;;6.50;99.10;;;;;;10519810;28;20024;-69
2022/01/12 09:40:39;;;;;;;13.10;6.03;;;6.50;99.10;;;;;;10484898;28;20016;-65
2022/01/12 09:45:43;;;;;;;13.05;6.03;;;6.50;99.10;;;;;;10492019;28;20107;-65
2022/01/12 09:50:44;;;;;;;11.75;5.55;;;6.50;99.10;;;;;;10498927;28;20094;-63
2022/01/12 09:55:46;;;;;;;12.25;5.22;;;6.50;99.10;;;;;;10506387;28;20399;-65
2022/01/12 10:01:00;;;;;;;13.48;5.45;;;6.60;99.10;;;;;;10526890;28;20216;-66
2022/01/12 10:06:13;;;;;;;13.35;5.78;;;6.60;99.40;;;;;;10501562;28;20020;-68
2022/01/12 10:11:14;;;;;;;11.10;5.75;;;6.60;99.10;;;;;;10527121;28;20043;-67
2022/01/12 10:16:20;;;;;;;12.95;5.93;;;6.60;99.10;;;;;;10511664;28;20107;-67
2022/01/12 10:21:34;;;;;;;12.50;5.68;;;6.60;99.20;;;;;;10516217;28;20632;-66
2022/01/12 10:26:39;;;;;;;14.40;5.70;;;6.70;99.50;;;;;;10513200;28;20162;-66
2022/01/12 10:31:57;;;;;;;13.15;6.00;;;6.70;99.20;;;;;;10509821;28;20036;-68
2022/01/12 10:36:58;;;;;;;15.13;5.65;;;6.70;99.20;;;;;;10519728;28;20501;-67
2022/01/12 10:42:01;;;;;;;13.50;5.40;;;6.70;99.10;;;;;;10520383;28;20016;-67
2022/01/12 10:47:18;;;;;;;12.00;5.15;;;6.70;99.10;;;;;;10521501;28;20451;-68
2022/01/12 10:52:20;;;;;;;10.98;5.65;;;6.70;99.20;;;;;;10524979;28;20055;-67
2022/01/12 10:57:24;;;;;;;10.23;4.50;;;6.70;99.10;;;;;;10532221;28;20016;-66
2022/01/12 11:02:27;;;;;;;12.02;4.82;;;6.80;99.10;;;;;;10532143;28;20035;-66
2022/01/12 11:07:31;;;;;;;13.25;6.13;;;6.70;99.10;;;;;;10518471;28;20024;-63
2022/01/12 11:12:35;;;;;;;11.57;5.13;;;6.80;99.10;;;;;;10531044;28;20032;-63
2022/01/12 11:17:38;;;;;;;10.02;4.40;;;6.80;99.10;;;;;;10519503;28;20125;-67
2022/01/12 11:22:41;;;;;;;12.82;4.90;;;6.80;99.10;;;;;;10514865;28;20020;-69
2022/01/12 11:27:43;;;;;;;8.88;4.13;;;6.80;99.20;;;;;;10521885;28;20078;-65
2022/01/12 11:32:54;;;;;;;10.88;4.63;;;6.80;99.20;;;;;;10510766;28;20044;-67
2022/01/12 11:37:59;;;;;;;10.27;4.10;;;6.80;99.20;;;;;;10516049;28;20489;-65
2022/01/12 11:43:00;;;;;;;10.68;4.25;;;6.80;99.20;;;;;;10517365;28;20063;-64
2022/01/12 11:48:01;;;;;;;7.80;3.67;;;6.90;99.20;;;;;;10527468;28;20028;-63
2022/01/12 11:53:02;;;;;;;8.35;3.60;;;6.80;99.20;;;;;;10520898;28;20036;-60
2022/01/12 11:58:03;;;;;;;6.85;3.60;;;6.80;99.20;;;;;;10528894;28;20024;-61
2022/01/12 12:03:15;;;;;;;7.07;3.67;;;6.90;99.50;;;;;;10529838;28;20036;-62
2022/01/12 12:08:24;;;;;;;7.38;3.40;;;6.80;99.20;;;;;;10528944;28;20044;-62
2022/01/12 12:13:25;;;;;;;9.65;3.47;;;6.90;99.30;;;;;;10527948;28;20028;-63
2022/01/12 12:18:27;;;;;;;7.18;3.22;;;6.90;99.30;;;;;;10527777;28;20080;-64
2022/01/12 12:23:30;;;;;;;9.18;3.60;;;6.90;99.30;;;;;;10520037;28;20046;-64
2022/01/12 12:28:31;;;;;;;7.95;3.00;;;6.90;99.30;;;;;;10528055;28;20044;-65
2022/01/12 12:33:34;;;;;;;6.63;3.17;;;6.90;99.30;;;;;;10516654;28;20048;-65
2022/01/12 12:38:35;;;;;;;6.45;3.25;;;6.90;99.30;;;;;;10517043;28;20027;-65
2022/01/12 12:43:37;;;;;;;7.07;3.30;;;7.00;99.40;;;;;;10530775;28;20501;-65
2022/01/12 12:48:39;;;;;;;8.18;2.63;;;6.90;99.40;;;;;;10529619;28;20028;-64
2022/01/12 12:53:47;;;;;;;6.55;2.72;;;6.90;99.40;;;;;;10529425;28;20456;-62
2022/01/12 12:58:53;;;;;;;6.18;2.65;;;6.90;99.40;;;;;;10528319;28;20056;-70
2022/01/12 13:03:59;;;;;;;5.60;2.50;;;6.90;99.40;;;;;;10529096;28;20024;-62
2022/01/12 13:09:04;;;;;;;10.15;2.90;;;6.90;99.40;;;;;;10521446;28;20020;-64
2022/01/12 13:14:07;;;;;;;6.90;3.08;;;7.00;99.60;;;;;;10529451;28;20043;-63
2022/01/12 13:19:21;;;;;;;8.98;3.55;;;7.10;99.90;;;;;;10505802;28;20039;-66
2022/01/12 13:24:23;;;;;;;11.65;3.70;;;7.10;99.80;;;;;;10517634;28;20048;-63
2022/01/12 13:29:24;;;;;;;16.05;3.65;;;7.10;99.90;;;;;;10510525;28;20031;-63
2022/01/12 13:34:30;;;;;;;10.98;3.70;;;6.90;99.90;;;;;;10528479;28;20032;-67
2022/01/12 13:39:31;;;;;;;10.82;3.60;;;6.90;99.90;;;;;;10525503;28;20043;-62
2022/01/12 13:44:32;;;;;;;9.75;3.65;;;6.70;99.90;;;;;;10529680;28;20036;-62
2022/01/12 13:49:33;;;;;;;10.23;3.38;;;6.80;99.90;;;;;;10527755;28;20117;-62
2022/01/12 13:54:42;;;;;;;18.77;3.88;;;6.90;99.90;;;;;;10528065;28;20116;-62
2022/01/12 13:59:49;;;;;;;9.52;3.17;;;7.00;99.90;;;;;;10499694;28;20524;-63
2022/01/12 14:05:10;;;;;;;14.15;3.72;;;7.00;99.90;;;;;;10524026;28;20625;-65
2022/01/12 14:10:11;;;;;;;13.35;4.85;;;7.10;99.90;;;;;;10523751;28;20059;-66
2022/01/12 14:15:12;;;;;;;12.63;3.83;;;7.10;99.90;;;;;;10533348;28;20016;-65
2022/01/12 14:20:22;;;;;;;11.05;3.88;;;7.00;99.90;;;;;;10538612;28;20020;-61
2022/01/12 14:25:37;;;;;;;7.85;3.22;;;7.00;99.90;;;;;;10526959;28;20518;-64
2022/01/12 14:30:38;;;;;;;9.07;3.38;;;7.20;99.90;;;;;;10524986;28;20044;-63
2022/01/12 14:35:39;;;;;;;8.95;3.40;;;7.20;99.90;;;;;;10534514;28;20257;-62
2022/01/12 14:40:42;;;;;;;7.55;2.95;;;7.20;99.90;;;;;;10527928;28;20486;-64
2022/01/12 14:45:43;;;;;;;8.82;3.53;;;7.20;99.90;;;;;;10504231;28;20162;-62
2022/01/12 14:50:44;;;;;;;9.55;3.22;;;7.20;99.90;;;;;;10499181;28;20032;-64
2022/01/12 14:55:45;;;;;;;7.82;2.88;;;7.20;99.90;;;;;;10500152;28;20017;-60
2022/01/12 15:00:47;;;;;;;11.50;3.15;;;7.20;99.90;;;;;;10508238;28;20367;-63
2022/01/12 15:05:49;;;;;;;14.48;3.53;;;7.20;99.90;;;;;;10505585;28;20529;-62
2022/01/12 15:10:50;;;;;;;7.95;3.08;;;7.20;99.90;;;;;;10502333;28;20036;-63
2022/01/12 15:15:56;;;;;;;7.57;3.35;;;7.20;99.90;;;;;;10509711;28;20047;-64
2022/01/12 15:20:58;;;;;;;10.88;3.35;;;7.20;99.90;;;;;;10498599;28;20012;-66
2022/01/12 15:25:58;;;;;;;13.63;4.13;;;7.20;99.90;;;;;;10504381;28;20048;-63
2022/01/12 15:30:59;;;;;;;7.72;3.35;;;7.20;99.90;;;;;;10500267;28;20037;-62
2022/01/12 15:36:00;;;;;;;11.23;3.60;;;7.20;99.90;;;;;;10493919;28;20508;-59
2022/01/12 15:41:01;;;;;;;9.23;3.30;;;7.30;99.90;;;;;;10510167;28;20028;-61
2022/01/12 15:46:01;;;;;;;9.05;3.38;;;7.40;99.90;;;;;;10493431;28;20394;-66
2022/01/12 15:51:02;;;;;;;13.55;3.75;;;7.20;99.90;;;;;;10503611;28;20036;-63
2022/01/12 15:56:04;;;;;;;18.48;4.30;;;7.30;99.90;;;;;;10496058;28;20064;-65
2022/01/12 16:01:05;;;;;;;10.70;3.83;;;7.20;99.90;;;;;;10518657;28;20063;-63
2022/01/12 16:06:08;;;;;;;13.05;4.25;;;7.20;99.90;;;;;;10506344;28;20055;-65
2022/01/12 16:11:10;;;;;;;18.15;5.35;;;7.20;99.90;;;;;;10517096;28;20470;-66
2022/01/12 16:16:11;;;;;;;14.68;4.32;;;7.20;99.90;;;;;;10527426;28;20031;-61
2022/01/12 16:21:11;;;;;;;17.77;5.57;;;7.20;99.90;;;;;;10512076;28;20032;-66
2022/01/12 16:26:12;;;;;;;15.60;4.80;;;7.20;99.90;;;;;;10499477;28;20338;-63
2022/01/12 16:31:22;;;;;;;19.27;5.40;;;7.10;99.90;;;;;;10512975;28;20201;-62
2022/01/12 16:36:24;;;;;;;23.77;6.18;;;7.20;99.90;;;;;;10508485;28;20020;-62
2022/01/12 16:41:25;;;;;;;14.27;5.70;;;7.10;99.90;;;;;;10520895;28;20023;-64
2022/01/12 16:46:27;;;;;;;21.23;6.32;;;7.10;99.90;;;;;;10525996;28;20111;-65
2022/01/12 16:51:28;;;;;;;20.30;6.00;;;7.10;99.90;;;;;;10527091;28;20082;-65
2022/01/12 16:56:29;;;;;;;16.42;5.68;;;7.10;99.90;;;;;;10524406;28;20814;-66
2022/01/12 17:01:30;;;;;;;20.13;6.20;;;7.10;99.90;;;;;;10527726;28;20040;-65
2022/01/12 17:06:30;;;;;;;21.63;6.35;;;7.10;99.90;;;;;;10508472;28;20063;-65
2022/01/12 17:11:31;;;;;;;15.38;5.97;;;7.10;99.90;;;;;;10526976;28;20073;-66
2022/01/12 17:16:33;;;;;;;22.45;7.28;;;7.10;99.90;;;;;;10526931;28;20031;-63
2022/01/12 17:21:34;;;;;;;19.45;5.88;;;7.10;99.90;;;;;;10529836;28;20100;-65
2022/01/12 17:26:37;;;;;;;20.52;6.30;;;7.20;99.90;;;;;;10518383;28;20044;-66
2022/01/12 17:31:39;;;;;;;14.70;5.25;;;7.30;99.90;;;;;;10523334;28;20032;-67
2022/01/12 17:36:49;;;;;;;23.55;6.80;;;7.20;99.90;;;;;;10515226;28;20032;-67
2022/01/12 17:41:54;;;;;;;19.00;6.57;;;7.10;99.90;;;;;;10500476;28;20019;-67
2022/01/12 17:46:56;;;;;;;22.85;7.63;;;7.20;99.90;;;;;;10505634;28;20020;-67
2022/01/12 17:51:57;;;;;;;21.58;7.22;;;7.10;99.90;;;;;;10512963;28;20039;-67
2022/01/12 17:56:58;;;;;;;16.90;6.35;;;7.20;99.90;;;;;;10519378;28;20024;-63
2022/01/12 18:01:59;;;;;;;25.88;7.68;;;7.20;99.90;;;;;;10506314;28;20036;-66
2022/01/12 18:06:59;;;;;;;26.25;7.97;;;7.20;99.90;;;;;;10505095;28;20040;-67
2022/01/12 18:12:00;;;;;;;23.40;8.63;;;7.20;99.90;;;;;;10524178;28;20135;-64
2022/01/12 18:17:01;;;;;;;25.70;7.97;;;7.10;99.90;;;;;;10521698;28;20017;-64
2022/01/12 18:22:02;;;;;;;24.50;7.95;;;7.20;99.90;;;;;;10527354;28;20190;-65
2022/01/12 18:27:03;;;;;;;25.77;8.35;;;7.20;99.90;;;;;;10516326;28;20043;-66
2022/01/12 18:32:05;;;;;;;22.65;8.38;;;7.10;99.90;;;;;;10503922;28;20033;-65
2022/01/12 18:37:06;;;;;;;23.08;9.05;;;7.10;99.90;;;;;;10517317;28;20086;-64
2022/01/12 18:42:07;;;;;;;28.25;9.30;;;7.10;99.90;;;;;;10517277;28;20359;-65
2022/01/12 18:47:08;;;;;;;29.27;9.82;;;7.10;99.90;;;;;;10518920;28;20059;-63
2022/01/12 18:52:09;;;;;;;27.75;9.65;;;7.10;99.90;;;;;;10515002;28;20044;-65
2022/01/12 18:57:10;;;;;;;30.25;9.38;;;8.10;99.90;;;;;;10524673;28;20378;-65
2022/01/12 19:02:10;;;;;;;30.08;9.90;;;7.10;99.90;;;;;;10527014;28;20037;-65
2022/01/12 19:07:11;;;;;;;31.85;10.80;;;7.10;99.90;;;;;;10529817;28;20159;-66
2022/01/12 19:12:14;;;;;;;34.08;11.00;;;7.10;99.90;;;;;;10532018;28;20040;-63
2022/01/12 19:17:15;;;;;;;28.67;9.52;;;6.10;99.90;;;;;;10530724;28;20024;-65
2022/01/12 19:22:16;;;;;;;33.47;10.13;;;7.10;99.90;;;;;;10535084;28;20035;-66
2022/01/12 19:27:17;;;;;;;32.30;11.18;;;7.10;99.90;;;;;;10522575;28;20486;-61
2022/01/12 19:32:19;;;;;;;30.45;10.63;;;7.20;99.90;;;;;;10527478;28;20037;-66
2022/01/12 19:37:21;;;;;;;26.90;11.05;;;7.10;99.90;;;;;;10520429;28;20035;-65
2022/01/12 19:42:21;;;;;;;32.70;10.20;;;7.10;99.90;;;;;;10532272;28;20039;-66
2022/01/12 19:47:22;;;;;;;26.60;10.20;;;7.20;99.90;;;;;;10507412;28;20426;-64
2022/01/12 19:52:44;;;;;;;32.53;10.00;;;7.30;99.90;;;;;;10509609;28;20503;-66
2022/01/12 19:57:52;;;;;;;30.70;9.50;;;7.10;99.90;;;;;;10508976;28;20584;-65
2022/01/12 20:03:09;;;;;;;29.85;9.95;;;7.00;99.90;;;;;;10506428;28;20491;-64
2022/01/12 20:08:28;;;;;;;28.25;9.57;;;7.10;99.90;;;;;;10504622;28;20367;-65
2022/01/12 20:13:28;;;;;;;31.48;10.10;;;7.00;99.90;;;;;;10514243;28;20398;-64
2022/01/12 20:24:25;;;;;;;29.48;10.00;;;7.00;99.90;;;;;;10512788;28;20032;-64
2022/01/12 20:29:29;;;;;;;28.67;10.27;;;7.10;99.90;;;;;;10488501;28;20040;-66
2022/01/12 20:34:31;;;;;;;28.30;9.95;;;7.00;99.90;;;;;;10506238;28;20575;-60
2022/01/12 20:39:36;;;;;;;32.10;10.27;;;7.00;99.90;;;;;;10506941;28;20040;-67
2022/01/12 20:44:38;;;;;;;27.75;9.77;;;7.00;99.90;;;;;;10511676;28;20046;-65
2022/01/12 20:49:39;;;;;;;27.60;9.68;;;7.00;99.90;;;;;;10509970;28;20024;-63
2022/01/12 20:54:40;;;;;;;28.08;10.25;;;7.00;99.90;;;;;;10509130;28;20576;-66
2022/01/12 20:59:42;;;;;;;29.58;9.88;;;7.00;99.90;;;;;;10510425;28;20039;-65
2022/01/12 21:04:43;;;;;;;26.33;9.75;;;7.30;99.90;;;;;;10482966;28;20043;-64
2022/01/12 21:09:44;;;;;;;30.75;10.85;;;7.10;99.90;;;;;;10504800;28;20020;-63
2022/01/12 21:14:48;;;;;;;28.88;9.63;;;7.00;99.90;;;;;;10517207;28;20028;-62
2022/01/12 21:19:49;;;;;;;31.77;10.70;;;7.30;99.90;;;;;;10485376;28;20021;-65
2022/01/12 21:24:49;;;;;;;30.83;10.30;;;7.10;99.90;;;;;;10495945;28;20029;-63
2022/01/12 21:29:50;;;;;;;35.53;12.32;;;7.30;99.90;;;;;;10502152;28;20115;-62
2022/01/12 21:34:54;;;;;;;30.45;10.27;;;7.00;99.90;;;;;;10505005;28;20561;-63
2022/01/12 21:39:57;;;;;;;29.45;10.27;;;7.00;99.90;;;;;;10507694;28;20028;-62
2022/01/12 21:44:59;;;;;;;33.20;10.63;;;7.00;99.90;;;;;;10511233;28;20032;-65
2022/01/12 21:50:00;;;;;;;33.47;10.88;;;7.00;99.90;;;;;;10499550;28;20037;-63
2022/01/12 21:55:00;;;;;;;30.80;10.10;;;7.10;99.90;;;;;;10504039;28;20104;-65
2022/01/12 22:00:05;;;;;;;33.47;10.73;;;7.00;99.90;;;;;;10501445;28;20044;-66
2022/01/12 22:05:07;;;;;;;33.38;11.30;;;7.00;99.90;;;;;;10510396;28;20021;-67
2022/01/12 22:10:08;;;;;;;30.13;9.32;;;7.00;99.90;;;;;;10505852;28;20048;-61
2022/01/12 22:15:09;;;;;;;35.25;11.60;;;7.10;99.90;;;;;;10500268;28;20028;-59
2022/01/12 22:20:11;;;;;;;31.30;10.40;;;7.10;99.90;;;;;;10511765;28;20385;-60
2022/01/12 22:25:12;;;;;;;31.42;10.73;;;7.10;99.90;;;;;;10493499;28;20152;-62
2022/01/12 22:30:13;;;;;;;30.75;10.93;;;7.10;99.90;;;;;;10503843;28;20055;-64
2022/01/12 22:35:14;;;;;;;27.92;10.82;;;7.10;99.90;;;;;;10514081;28;20244;-64
2022/01/12 22:40:15;;;;;;;30.38;11.02;;;7.10;99.90;;;;;;10512450;28;20040;-65
2022/01/12 22:45:16;;;;;;;36.33;10.38;;;7.10;99.90;;;;;;10535168;28;20377;-65
2022/01/12 22:50:16;;;;;;;33.22;10.38;;;7.10;99.90;;;;;;10527016;28;20020;-64
2022/01/12 22:55:17;;;;;;;35.13;11.02;;;7.10;99.90;;;;;;10529756;28;20533;-65
2022/01/12 23:00:18;;;;;;;32.40;9.98;;;7.10;99.90;;;;;;10530993;28;20110;-64
2022/01/12 23:05:19;;;;;;;34.97;10.68;;;7.30;99.90;;;;;;10530391;28;20055;-65
2022/01/12 23:10:20;;;;;;;34.58;9.65;;;7.10;99.90;;;;;;10517118;28;20036;-65
2022/01/12 23:15:21;;;;;;;32.47;9.52;;;7.10;99.90;;;;;;10521324;28;21292;-65
2022/01/12 23:20:21;;;;;;;33.88;9.20;;;7.10;99.90;;;;;;10539556;28;20495;-65
2022/01/12 23:25:22;;;;;;;30.42;8.68;;;7.10;99.90;;;;;;10510908;28;20445;-64
2022/01/12 23:30:25;;;;;;;31.52;10.30;;;7.10;99.90;;;;;;10525609;28;20028;-66
2022/01/12 23:51:11;;;;;;;;;;;7.10;99.90;;;;;;10524388;28;20036;-64
